Westside, Iowa
Current Conditions -  °F | °C
As of 12:35 AM on Friday 31 Oct 2014 (Local Time) from KDNS Reporting Station
Overcast Overcast  
Wind Chill: 25°   Ceiling: 2600
Heat Index: 36°   Visibility: 10mi
Dew Point: 25°   Wind: 21mph
Humidity: 65%   Direction: 360°N
Pressure: 30.38"   Gusts: 31mph
Location:  42.06°N, 95.1°W
Report Text: KDNS 310535Z AUTO 36018G27KT 10SM OVC026 02/M04 A3038 RMK AO2
Loading
Personal Weather Stations






























Interactive Weather Map
Tropical Storm Tracking
New forecast layout! Learn more

10-Day Weather Forecast

Advertisements
Track Severe Weather on mobile